ADDS METAR Data INFO
IDs: Format: Raw Decoded Include TAF

Data at: 2054 UTC 24 Jun 2017

KDFW 242034Z 07013KT 10SM FEW020 FEW045 OVC160 28/22 A3008 RMK AO2 WSHFT 2014 T02830217
KDFW 242021Z 05011KT 10SM FEW020 SCT030 BKN045 OVC160 27/22 A3009 RMK AO2 T02670217
KDFW 241953Z 01013KT 10SM SCT020 BKN027 OVC160 26/22 A3008 RMK AO2 SLP178 T02610217
KDFW 241905Z 04013KT 10SM SCT014 BKN020 BKN110 OVC250 26/21 A3008 RMK AO2 T02560211
KDFW 241853Z 05013KT 10SM SCT014 SCT110 BKN250 26/22 A3007 RMK AO2 WSHFT 1803 SLP176 T02560217
KDFW 241823Z 06010KT 10SM FEW040 FEW075 SCT110 BKN250 24/21 A3007 RMK AO2 WSHFT 1803 T02440211
KDFW 241753Z 34003KT 10SM FEW040 FEW075 SCT110 OVC250 25/21 A3007 RMK AO2 RAE49 SLP175 P0000 60327 T02500206 10250 20211 58027
KDFW 241653Z 29004KT 10SM -RA FEW045 FEW070 BKN110 OVC250 23/20 A3010 RMK AO2 SLP185 P0001 T02280200
KDFW 241553Z 10006KT 10SM -RA FEW046 SCT070 BKN120 OVC250 22/19 A3015 RMK AO2 TSE35 SLP203 TS DSIPTD P0010 T02170194
KDFW 241535Z 10006KT 10SM -RA FEW046 BKN070 OVC110 22/20 A3016 RMK AO2 TSE35 TS DSIPTD P0009 T02170200
KDFW 241453Z 00000KT 4SM TSRA BR FEW010 BKN041CB OVC070 21/20 A3015 RMK AO2 PK WND 06028/1414 SLP202 OCNL LTGICCCCG ALQDS TS ALQDS MOV SE P0065 60316 T02110200 51031
KDFW 241449Z 00000KT 3SM TSRA BR FEW010 BKN041CB OVC070 21/20 A3016 RMK AO2 PK WND 06028/1414 OCNL LTGICCCCG ALQDS TS ALQDS MOV SE P0064
KDFW 241434Z 07009KT 3/4SM R17C/4500V6000FT +TSRA BR FEW010 BKN037CB OVC060 21/20 A3017 RMK AO2 PK WND 06028/1414 OCNL LTGICCCCG ALQDS TS ALQDS MOV SE P0050 T02110200
KDFW 241422Z 06018G28KT 1SM R17C/5500VP6000FT +TSRA BR FEW010 BKN047CB OVC060 22/21 A3017 RMK AO2 PK WND 06028/1414 FRQ LTGICCCCG ALQDS TS ALQDS MOV SE P0026 T02170206
KDFW 241353Z 04013G19KT 1 3/4SM R17C/4000VP6000FT +TSRA BR BKN004CB OVC039 22/22 A3015 RMK AO2 LTG DSNT NE-SE SLP200 FRQ LTGICCCCG ALQDS TS ALQDS MOV SE P0037 T02220217
KDFW 241341Z 04008KT 1 3/4SM +TSRA BR BKN004CB OVC039 22/22 A3014 RMK AO2 LTG DSNT NE-SE FRQ LTGICCCCG ALQDS TS ALQDS MOV SE P0030 T02220217
KDFW 241312Z 02008KT 1 3/4SM +TSRA BR FEW046 BKN060CB OVC085 22/21 A3012 RMK AO2 LTG DSNT ALQDS FRQ LTGICCCCG ALQDS TS ALQDS MOV SE P0007 T02170211
KDFW 241253Z 35006KT 5SM TSRA BR SCT018 BKN037CB OVC085 22/22 A3011 RMK AO2 LTG DSNT ALQDS SLP186 OCNL LTGICCC NE AND S-W TS NE AND S-W MOV SE P0214 T02220217
KDFW 241243Z 33009KT 2SM R17C/5000VP6000FT +TSRA BR BKN018 BKN030CB OVC085 22/22 A3010 RMK AO2 LTG DSNT ALQDS OCNL LTGICCC ALQDS TS ALQDS MOV SE P0212 T02170217
KDFW 241237Z 32011KT 3/4SM R17C/2800VP6000FT +TSRA BR BKN016 OVC030CB 22/21 A3010 RMK AO2 LTG DSNT ALQDS FRQ LTGICCC ALQDS TS ALQDS MOV SE P0208 T02170211
KDFW 241210Z COR 32014KT 1/2SM R17C/1800V4000FT +TSRA FG FEW005 BKN011 OVC016CB 22/22 A3010 RMK AO2 LTG DSNT NW-NE PRESRR FRQ LTGICCCCG ALQDS TS ALQDS MOV SE P0083 T02220217
KDFW 241157Z COR 30017KT 3/4SM R17C/4500VP6000FT +TSRA BR BKN016 OVC035CB 23/22 A3007 RMK AO2 LTG DSNT ALQDS FRQ LTGICCCCG ALQDS TS ALQDS MOV SE P0015 T02280217
KDFW 241150Z 28021G27KT 1 3/4SM +TSRA BR BKN016 BKN060CB OVC110 23/22 A3006 RMK AO2 PK WND 29027/1147 LTG DSNT SW-N RAB44 TSB27 FRQ LTGICCCCG ALQDS TS ALQDS MOV SE P0009
KDFW 241137Z 26005KT 10SM TS BKN016 BKN060CB BKN110 OVC250 24/22 A3006 RMK AO2 LTG DSNT SW-N TSB27 PRESRR FRQ LTGICCCCG DSNT SW-N CB DSNT SW-N MOV SE T02390217
KDFW 241127Z 27004KT 10SM TS SCT060CB BKN090 BKN110 OVC140 24/22 A3004 RMK AO2 LTG DSNT SW-N TSB27 FRQ LTGICCCCG DSNT SW-N CB DSNT SW-N MOV SE T02390217
KDFW 241053Z 11005KT 10SM FEW060 BKN110 BKN140 OVC250 23/21 A2999 RMK AO2 LTG DSNT SW-NW SLP145 OCNL LTGICCC DSNT SW-N CB DSNT SW-N MOV SE T02330211
KDFW 240953Z 17005KT 10SM FEW060 FEW090 BKN120 BKN160 OVC300 24/22 A2997 RMK AO2 LTG DSNT SE AND S RAB14E48 SLP139 OCNL LTGIC DSNT S AND NW CB DSNT S AND NW P0000 T02390222
KDFW 240853Z COR 06004KT 10SM FEW050 SCT110 OVC220 23/21 A2994 RMK AO2 LTG DSNT SE-SW OCNL LTGIC DSNT SE-W CB DSNT SE-W MOV S SLP128 60045 T02280211 50002
KDFW 240753Z 20007KT 10SM FEW045 SCT110 BKN220 OVC300 23/20 A2994 RMK AO2 LTG DSNT ALQDS SLP129 RAE15 TSE02 OCNL LTGIC DSNT S-W TS MOVD S CB DSNT S-W MOV S P0000 T02280200
KDFW 240704Z 19013KT 10SM -RA FEW007 SCT045 OVC095 24/23 A2994 RMK AO2 LTG DSNT ALQDS TSE02 OCNL LTGIC DSNT S-W TS MOVD S CB DSNT S-W MOV S P0000 T02440233
KDFW 240653Z 17005KT 6SM TSRA BR SCT007 BKN027CB OVC050 24/23 A2994 RMK AO2 PK WND 08026/0620 LTG DSNT ALQDS SLP129 OCNL LTGICCC SE-W TS SE-W MOV S P0045 T02390233
KDFW 240636Z 10007G19KT 9SM -TSRA SCT007 BKN027CB OVC050 24/23 A2996 RMK AO2 PK WND 08026/0620 LTG DSNT ALQDS PRESRR OCNL LTGICCC SE-W TS SE-W MOV S P0042 T02440233
KDFW 240624Z 07018G26KT 3SM +TSRA BR SCT007 BKN031 OVC035CB 24/23 A2994 RMK AO2 PK WND 08026/0620 LTG DSNT ALQDS FRQ LTGICCC ALQDS TS ALQDS MOV S P0041 T02440233
KDFW 240620Z 08019G26KT 2SM +TSRA BR FEW007 SCT010 OVC031CB 24/23 A2993 RMK AO2 PK WND 08026/0620 LTG DSNT ALQDS FRQ LTGICCC ALQDS TS ALQDS MOV S P0039 T02440233
KDFW 240616Z 08013KT 1 3/4SM R17C/6000VP6000FT +TSRA BR FEW007 SCT010 OVC031CB 24/24 A2993 RMK AO2 LTG DSNT ALQDS FRQ LTGICCC ALQDS TS ALQDS MOV S P0035 T02440239
KDFW 240614Z 05010KT 1 1/2SM R17C/5000VP6000FT +TSRA BR FEW007 BKN029 OVC034CB 24/24 A2995 RMK AO2 LTG DSNT ALQDS FRQ LTGICCC ALQDS TS ALQDS MOV S P0031 T02440239
KDFW 240607Z 05013KT 2SM R17C/5000VP6000FT +TSRA BR FEW009 SCT025 OVC032CB 25/24 A2994 RMK AO2 LTG DSNT ALQDS FRQ LTGICCC ALQDS TS ALQDS MOV S P0016 T02500239
KDFW 240605Z 06014KT 2SM R17C/5500VP6000FT +TSRA BR FEW016 SCT025 OVC032CB 25/24 A2993 RMK AO2 LTG DSNT ALQDS FRQ LTGICCC ALQDS TS ALQDS MOV S P0012 T02500244
KDFW 240553Z 04018G33KT 3SM +TSRA BR FEW006 BKN032 OVC043CB 26/24 A2993 RMK AO2 PK WND 04036/0543 LTG DSNT ALQDS RAB43 TSB05 SLP125 OCNL LTGICCC ALQDS TS ALQDS MOV S P0009 60009 T02560244 10361 20256 403780250 53027
KDFW 240545Z 04027G36KT 6SM -TSRA BR FEW016 SCT025 BKN043CB OVC130 27/24 A2994 RMK AO2 PK WND 04036/0543 LTG DSNT ALQDS RAB43 TSB05 OCNL LTGICCC N-E TS N-E MOV S P0000 T02670244
KDFW 240505Z 16006KT 10SM TS SCT060CB OVC300 31/25 A2990 RMK AO2 LTG DSNT N-E TSB05 OCNL LTGICCC N-E TS N-E MOV S T03110250
KDFW 240453Z 17006KT 10SM VCTS SCT060 BKN300 31/25 A2989 RMK AO2 LTG DSNT N-E SLP111 OCNL LTGICCC DSNT NE CB DSNT NE MOV S T03110250
KDFW 240353Z 13006KT 10SM FEW055 BKN300 32/24 A2987 RMK AO2 LTG DSNT E AND SE SLP105 OCNL LTGIC DSNT NE-E CB DSNT NE-E MOV S T03170244
KDFW 240253Z 11007KT 10SM FEW055 SCT300 33/24 A2985 RMK AO2 SLP097 T03280239 51026
KDFW 240153Z 08009KT 10SM FEW055 SCT300 34/22 A2983 RMK AO2 SLP089 T03390217
KDFW 240053Z 10010KT 10SM FEW055 SCT300 35/22 A2980 RMK AO2 SLP080 MDT CU W T03500222
KDFW 232353Z 15007KT 10SM FEW055 FEW300 36/23 A2977 RMK AO2 SLP070 T03610228 10378 20339 55005
KDFW 232253Z 15008KT 10SM FEW055 FEW300 37/22 A2976 RMK AO2 SLP067 T03720222
KDFW 232153Z 05009KT 10SM FEW055 FEW300 37/23 A2979 RMK AO2 SLP075 CB DSNT N-NE MOV S T03720228
KDFW 232053Z 05007KT 10SM FEW055 FEW300 37/23 A2979 RMK AO2 SLP076 CB TCU DSNT N-NE MOV SE T03720233 58003
KDFW 231953Z 20004KT 10SM FEW050 FEW300 36/23 A2979 RMK AO2 SLP075 CB TCU DSNT N-NE T03610228
KDFW 231853Z VRB03KT 10SM FEW050 FEW300 35/23 A2980 RMK AO2 SLP081 T03500233
KDFW 231753Z 15006KT 10SM FEW040 SCT300 34/24 A2980 RMK AO2 SLP079 T03390244 10339 20256 55000
KDFW 231653Z 15009KT 10SM FEW030 SCT300 33/25 A2978 RMK AO2 SLP076 T03280250
KDFW 231553Z 16008KT 10SM FEW020 BKN300 31/24 A2978 RMK AO2 SLP075 T03110244
KDFW 231453Z 18003KT 10SM FEW015 BKN300 29/24 A2980 RMK AO2 SLP080 T02940244 52023
KDFW 231353Z 20010KT 10SM FEW012 BKN300 28/24 A2977 RMK AO2 SLP071 T02830244
KDFW 231253Z 19010KT 10SM FEW015 BKN300 27/24 A2975 RMK AO2 SLP066 T02670244
KDFW 231153Z 16007KT 10SM BKN300 26/24 A2973 RMK AO2 SLP056 T02610239 10272 20250 53006
KDFW 231053Z 18005KT 10SM BKN300 25/23 A2972 RMK AO2 SLP054 T02500233
KDFW 230953Z 16006KT 10SM SCT300 26/23 A2971 RMK AO2 SLP049 T02560233


Page loaded:  20:54 UTC  |   01:54 PM Pacific  |   02:54 PM Mountain  |   03:54 PM Central  |   04:54 PM Eastern

 

ADVISORIES

FORECASTS

FORECASTS

OBSERVATIONS

USER TOOLS

ABOUT US